createdAt,value
2022-10-28T00:00:48.366Z,13.10
2022-10-28T00:03:56.341Z,12.85
2022-10-28T00:06:59.891Z,11.32
2022-10-28T00:10:04.260Z,12.18
2022-10-28T00:13:06.832Z,12.37
2022-10-28T00:16:16.102Z,12.90
2022-10-28T00:19:18.682Z,11.77
2022-10-28T00:22:22.933Z,12.10
2022-10-28T00:25:27.149Z,12.02
2022-10-28T00:28:30.100Z,12.17
2022-10-28T00:31:34.635Z,10.30
2022-10-28T00:34:37.857Z,11.07
2022-10-28T00:37:40.466Z,10.90
2022-10-28T00:40:43.402Z,10.77
2022-10-28T00:43:47.642Z,12.13
2022-10-28T00:46:53.519Z,11.73
2022-10-28T00:50:10.129Z,12.43
2022-10-28T00:53:21.185Z,11.70
2022-10-28T00:56:27.865Z,12.65
2022-10-28T00:59:35.397Z,11.57
2022-10-28T01:02:44.675Z,12.50
2022-10-28T01:05:49.592Z,13.50
2022-10-28T01:08:54.850Z,11.40
2022-10-28T01:12:18.392Z,13.18
2022-10-28T01:15:42.739Z,12.17
2022-10-28T01:19:11.444Z,11.03
2022-10-28T01:22:25.748Z,11.60
2022-10-28T01:25:45.783Z,11.02
2022-10-28T01:29:07.023Z,11.43
2022-10-28T01:32:48.553Z,13.23
2022-10-28T01:36:01.622Z,12.53
2022-10-28T01:39:16.083Z,12.05
2022-10-28T01:42:37.802Z,11.55
2022-10-28T01:45:58.279Z,11.88
2022-10-28T01:49:09.410Z,11.97
2022-10-28T01:52:15.110Z,11.83
2022-10-28T01:55:29.379Z,11.15
2022-10-28T01:58:33.944Z,12.35
2022-10-28T02:01:38.625Z,12.25
2022-10-28T02:04:41.707Z,12.33
2022-10-28T02:07:45.041Z,13.00
2022-10-28T02:10:58.864Z,12.98
2022-10-28T02:14:16.144Z,12.35
2022-10-28T02:17:57.547Z,12.65
2022-10-28T02:21:06.195Z,12.97
2022-10-28T02:24:20.445Z,12.47
2022-10-28T02:27:35.329Z,12.37
2022-10-28T02:30:41.200Z,13.15
2022-10-28T02:33:47.799Z,12.45
2022-10-28T02:36:53.863Z,11.70
2022-10-28T02:40:00.196Z,12.20
2022-10-28T02:43:06.689Z,11.18
2022-10-28T02:46:11.614Z,10.95
2022-10-28T02:49:15.629Z,11.10
2022-10-28T02:52:22.149Z,11.40
2022-10-28T02:55:33.478Z,12.00
2022-10-28T02:58:42.631Z,12.25
2022-10-28T03:01:45.592Z,12.75
2022-10-28T03:04:48.469Z,12.65
2022-10-28T03:07:52.673Z,13.00
2022-10-28T03:10:55.510Z,13.73
2022-10-28T03:13:58.507Z,13.13
2022-10-28T03:17:01.199Z,13.43
2022-10-28T03:20:04.419Z,14.48
2022-10-28T03:23:07.044Z,12.73
2022-10-28T03:26:09.935Z,14.17
2022-10-28T03:29:12.499Z,13.32
2022-10-28T03:32:15.384Z,12.57
2022-10-28T03:35:17.938Z,13.70
2022-10-28T03:38:20.962Z,12.90
2022-10-28T03:41:23.834Z,13.53
2022-10-28T03:44:29.053Z,13.68
2022-10-28T03:47:31.676Z,12.18
2022-10-28T03:50:34.789Z,11.32
2022-10-28T03:53:37.395Z,10.20
2022-10-28T03:56:40.727Z,11.87
2022-10-28T03:59:43.413Z,12.37
2022-10-28T04:02:53.395Z,13.50
2022-10-28T04:05:56.453Z,13.35
2022-10-28T04:08:58.997Z,12.40
2022-10-28T04:12:01.995Z,12.40
2022-10-28T04:15:05.002Z,12.55
2022-10-28T04:18:08.091Z,13.93
2022-10-28T04:21:10.734Z,14.18
2022-10-28T04:24:13.636Z,15.43
2022-10-28T04:27:16.208Z,14.53
2022-10-28T04:30:19.260Z,16.23
2022-10-28T04:33:21.940Z,15.82
2022-10-28T04:36:24.923Z,16.65
2022-10-28T04:39:27.584Z,15.33
2022-10-28T04:42:30.511Z,14.93
2022-10-28T04:45:33.138Z,21.40
2022-10-28T04:48:36.301Z,17.60
2022-10-28T04:51:38.898Z,16.62
2022-10-28T04:54:41.833Z,17.63
2022-10-28T04:57:44.453Z,17.77
2022-10-28T05:00:47.393Z,14.95
2022-10-28T05:03:49.971Z,16.23
2022-10-28T05:06:52.791Z,14.82
2022-10-28T05:09:55.470Z,12.83
2022-10-28T05:12:58.388Z,15.80
2022-10-28T05:16:00.983Z,14.52
2022-10-28T05:19:04.119Z,14.90
2022-10-28T05:22:07.928Z,14.85
2022-10-28T05:25:12.025Z,15.20
2022-10-28T05:28:14.689Z,23.50
2022-10-28T05:31:18.367Z,20.60
2022-10-28T05:34:20.924Z,19.92
2022-10-28T05:37:23.770Z,22.15
2022-10-28T05:40:26.544Z,18.23
2022-10-28T05:43:29.435Z,17.63
2022-10-28T05:46:32.166Z,15.00
2022-10-28T05:49:35.049Z,14.60
2022-10-28T05:52:37.751Z,14.80
2022-10-28T05:55:45.141Z,14.70
2022-10-28T06:01:58.019Z,16.50
2022-10-28T06:05:00.967Z,13.88
2022-10-28T06:08:05.698Z,14.90
2022-10-28T06:11:07.131Z,17.27
2022-10-28T06:14:09.808Z,15.30
2022-10-28T06:17:12.717Z,15.43
2022-10-28T06:20:16.883Z,15.95
2022-10-28T06:23:20.056Z,33.65
2022-10-28T06:26:22.649Z,18.47
2022-10-28T06:29:25.632Z,15.40
2022-10-28T06:32:28.255Z,16.77
2022-10-28T06:35:31.216Z,17.10
2022-10-28T06:38:33.766Z,16.48
2022-10-28T06:41:36.618Z,17.70
2022-10-28T06:44:39.207Z,16.40
2022-10-28T06:47:43.599Z,16.55
2022-10-28T06:50:46.181Z,16.73
2022-10-28T06:53:52.955Z,15.55
2022-10-28T06:56:55.916Z,15.43
2022-10-28T06:59:58.786Z,18.43
2022-10-28T07:03:01.595Z,18.50
2022-10-28T07:06:05.212Z,17.58
2022-10-28T07:09:08.279Z,14.55
2022-10-28T07:12:11.280Z,15.93
2022-10-28T07:15:13.920Z,16.83
2022-10-28T07:18:16.762Z,16.55
2022-10-28T07:21:21.949Z,18.20
2022-10-28T07:27:30.240Z,17.70
2022-10-28T07:30:34.942Z,16.67
2022-10-28T07:33:37.554Z,15.10
2022-10-28T07:36:40.647Z,15.90
2022-10-28T07:39:43.312Z,14.55
2022-10-28T07:42:46.155Z,14.43
2022-10-28T07:45:48.903Z,14.80
2022-10-28T07:48:51.810Z,14.68
2022-10-28T07:51:54.525Z,14.52
2022-10-28T07:54:57.931Z,13.80
2022-10-28T07:58:00.635Z,14.27
2022-10-28T08:01:07.075Z,14.87
2022-10-28T08:04:09.996Z,14.30
2022-10-28T08:07:13.884Z,13.35
2022-10-28T08:10:16.873Z,12.75
2022-10-28T08:13:19.518Z,15.07
2022-10-28T08:16:22.577Z,14.30
2022-10-28T08:19:25.210Z,15.70
2022-10-28T08:22:28.160Z,14.45
2022-10-28T08:25:30.747Z,14.87
2022-10-28T08:28:33.890Z,15.40
2022-10-28T08:31:36.547Z,14.83
2022-10-28T08:34:42.681Z,15.43
2022-10-28T08:37:51.812Z,14.70
2022-10-28T08:41:33.483Z,15.38
2022-10-28T08:45:05.058Z,14.47
2022-10-28T08:48:36.721Z,14.83
2022-10-28T08:51:44.949Z,13.52
2022-10-28T08:54:55.520Z,13.50
2022-10-28T08:58:07.089Z,14.10
2022-10-28T09:01:21.532Z,14.10
2022-10-28T09:04:40.319Z,15.43
2022-10-28T09:07:43.396Z,13.02
2022-10-28T09:11:09.101Z,12.10
2022-10-28T09:14:33.621Z,12.40
2022-10-28T09:17:39.162Z,12.57
2022-10-28T09:20:54.904Z,12.43
2022-10-28T09:24:01.087Z,8.65
2022-10-28T09:27:23.194Z,7.00
2022-10-28T09:30:40.978Z,7.30
2022-10-28T09:33:55.857Z,5.97
2022-10-28T09:37:11.292Z,5.87
2022-10-28T09:40:17.500Z,6.93
2022-10-28T09:43:28.754Z,5.85
2022-10-28T09:46:36.216Z,7.15
2022-10-28T09:49:41.203Z,6.60
2022-10-28T09:52:59.401Z,7.20
2022-10-28T09:56:03.866Z,5.68
2022-10-28T09:59:08.037Z,7.78
2022-10-28T10:02:25.556Z,8.20
2022-10-28T10:05:30.557Z,8.13
2022-10-28T10:08:36.511Z,6.40
2022-10-28T10:11:45.145Z,7.10
2022-10-28T10:14:54.540Z,5.65
2022-10-28T10:18:01.012Z,8.13
2022-10-28T10:21:04.057Z,5.77
2022-10-28T10:24:22.858Z,7.50
2022-10-28T10:27:27.898Z,5.97
2022-10-28T10:30:33.810Z,6.35
2022-10-28T10:33:39.649Z,7.43
2022-10-28T10:36:50.214Z,6.63
2022-10-28T10:40:17.909Z,6.40
2022-10-28T10:43:24.445Z,8.50
2022-10-28T10:46:28.299Z,6.82
2022-10-28T10:49:31.386Z,7.62
2022-10-28T10:52:34.083Z,6.27
2022-10-28T10:55:40.353Z,6.87
2022-10-28T10:58:54.499Z,5.68
2022-10-28T11:01:59.665Z,6.85
2022-10-28T11:05:06.415Z,6.70
2022-10-28T11:08:27.668Z,6.50
2022-10-28T11:11:38.696Z,6.20
2022-10-28T11:14:54.862Z,5.80
2022-10-28T11:18:09.663Z,7.55
2022-10-28T11:21:15.543Z,8.63
2022-10-28T11:24:44.830Z,8.43
2022-10-28T11:28:21.840Z,11.90
2022-10-28T11:32:01.789Z,7.82
2022-10-28T11:35:04.842Z,6.68
2022-10-28T11:38:16.142Z,6.55
2022-10-28T11:41:27.942Z,14.67
2022-10-28T11:44:53.440Z,7.97
2022-10-28T11:48:15.102Z,12.35
2022-10-28T11:51:31.378Z,6.57
2022-10-28T11:54:45.195Z,7.37
2022-10-28T11:58:38.454Z,11.00
2022-10-28T12:01:45.834Z,8.60
2022-10-28T12:05:24.928Z,8.40
2022-10-28T12:09:00.062Z,7.25
2022-10-28T12:12:10.200Z,8.60
2022-10-28T12:15:20.461Z,6.77
2022-10-28T12:18:58.691Z,6.60
2022-10-28T12:22:01.287Z,5.65
2022-10-28T12:25:14.712Z,5.03
2022-10-28T12:28:25.532Z,5.95
2022-10-28T12:31:34.137Z,5.63
2022-10-28T12:35:08.037Z,5.93
2022-10-28T12:38:43.405Z,6.50
2022-10-28T12:42:13.105Z,6.47
2022-10-28T12:45:19.362Z,5.90
2022-10-28T12:48:34.022Z,9.17
2022-10-28T12:51:40.598Z,6.13
2022-10-28T12:55:03.964Z,6.25
2022-10-28T12:58:17.134Z,5.90
2022-10-28T13:01:22.562Z,6.62
2022-10-28T13:04:28.901Z,6.30
2022-10-28T13:08:02.352Z,5.97
2022-10-28T13:11:49.929Z,6.12
2022-10-28T13:15:26.372Z,6.43
2022-10-28T13:18:49.388Z,6.80
2022-10-28T13:22:19.365Z,7.33
2022-10-28T13:25:55.375Z,7.53
2022-10-28T13:29:01.225Z,6.65
2022-10-28T13:32:05.399Z,6.10
2022-10-28T13:35:28.140Z,7.57
2022-10-28T13:38:31.225Z,7.13
2022-10-28T13:41:44.692Z,7.03
2022-10-28T13:44:55.713Z,8.00
2022-10-28T13:48:30.485Z,7.25
2022-10-28T13:51:33.950Z,7.57
2022-10-28T13:54:39.228Z,8.13
2022-10-28T13:57:50.222Z,8.70
2022-10-28T14:00:53.966Z,6.78
2022-10-28T14:03:57.174Z,6.60
2022-10-28T14:07:15.812Z,8.00
2022-10-28T14:10:30.814Z,8.10
2022-10-28T14:13:48.103Z,6.23
2022-10-28T14:16:51.110Z,7.05
2022-10-28T14:19:54.643Z,8.00
2022-10-28T14:22:58.206Z,9.57
2022-10-28T14:26:04.762Z,9.27
2022-10-28T14:29:23.993Z,9.10
2022-10-28T14:32:35.209Z,8.68
2022-10-28T14:35:42.995Z,9.60
2022-10-28T14:38:52.537Z,7.78
2022-10-28T14:42:15.719Z,7.80
2022-10-28T14:45:39.829Z,9.83
2022-10-28T14:48:53.839Z,10.20
2022-10-28T14:51:58.247Z,11.55
2022-10-28T14:55:19.845Z,11.15
2022-10-28T14:58:24.682Z,10.77
2022-10-28T15:01:33.190Z,12.03
2022-10-28T15:04:35.944Z,12.45
2022-10-28T15:07:41.889Z,12.57
2022-10-28T15:10:49.476Z,12.63
2022-10-28T15:13:53.622Z,12.60
2022-10-28T15:16:57.035Z,7.90
2022-10-28T15:20:00.964Z,11.43
2022-10-28T15:23:22.028Z,11.52
2022-10-28T15:26:25.065Z,14.70
2022-10-28T15:29:27.880Z,17.27
2022-10-28T15:32:33.334Z,16.57
2022-10-28T15:35:39.719Z,16.02
2022-10-28T15:38:47.344Z,25.45
2022-10-28T15:41:52.628Z,22.37
2022-10-28T15:44:57.028Z,18.17
2022-10-28T15:48:10.224Z,35.73
2022-10-28T15:51:18.225Z,20.83
2022-10-28T15:54:20.885Z,18.23
2022-10-28T15:57:28.921Z,17.30
2022-10-28T16:00:33.676Z,16.40
2022-10-28T16:03:47.297Z,16.63
2022-10-28T16:06:54.634Z,17.48
2022-10-28T16:09:58.083Z,16.87
2022-10-28T16:13:01.915Z,15.85
2022-10-28T16:16:09.738Z,15.60
2022-10-28T16:19:28.198Z,12.50
2022-10-28T16:22:34.500Z,12.15
2022-10-28T16:25:37.213Z,22.05
2022-10-28T16:28:45.002Z,15.13
2022-10-28T16:31:52.723Z,17.90
2022-10-28T16:35:00.103Z,13.50
2022-10-28T16:38:12.240Z,17.65
2022-10-28T16:41:17.818Z,18.33
2022-10-28T16:44:20.775Z,14.35
2022-10-28T16:47:29.495Z,16.27
2022-10-28T16:50:32.045Z,22.60
2022-10-28T16:53:36.450Z,12.98
2022-10-28T16:56:40.297Z,11.70
2022-10-28T16:59:43.519Z,16.40
2022-10-28T17:02:50.845Z,13.93
2022-10-28T17:05:54.015Z,17.30
2022-10-28T17:09:02.998Z,15.82
2022-10-28T17:12:07.098Z,14.90
2022-10-28T17:15:10.961Z,13.35
2022-10-28T17:18:15.626Z,12.10
2022-10-28T17:21:19.125Z,9.23
2022-10-28T17:24:22.684Z,11.55
2022-10-28T17:27:26.588Z,13.45
2022-10-28T17:30:30.666Z,12.13
2022-10-28T17:33:33.624Z,14.20
2022-10-28T17:36:36.932Z,14.70
2022-10-28T17:39:39.559Z,16.67
2022-10-28T17:42:42.534Z,11.95
2022-10-28T17:45:45.226Z,13.70
2022-10-28T17:48:49.702Z,8.93
2022-10-28T17:51:52.795Z,11.93
2022-10-28T17:54:56.152Z,12.95
2022-10-28T17:57:59.160Z,12.90
2022-10-28T18:01:07.929Z,12.55
2022-10-28T18:04:12.273Z,13.10
2022-10-28T18:07:15.525Z,14.73
2022-10-28T18:10:19.160Z,14.87
2022-10-28T18:13:30.580Z,14.87
2022-10-28T18:16:35.976Z,12.27
2022-10-28T18:19:40.152Z,13.60
2022-10-28T18:22:43.435Z,13.90
2022-10-28T18:25:46.430Z,13.05
2022-10-28T18:28:50.243Z,11.68
2022-10-28T18:31:53.178Z,12.18
2022-10-28T18:34:56.165Z,13.57
2022-10-28T18:38:01.563Z,15.03
2022-10-28T18:41:14.318Z,16.35
2022-10-28T18:44:20.713Z,15.70
2022-10-28T18:47:25.136Z,11.77
2022-10-28T18:50:28.246Z,19.03
2022-10-28T18:53:31.656Z,11.80
2022-10-28T18:56:34.591Z,12.00
2022-10-28T18:59:52.389Z,12.25
2022-10-28T19:03:00.405Z,16.10
2022-10-28T19:06:09.091Z,17.20
2022-10-28T19:09:13.936Z,15.37
2022-10-28T19:12:16.840Z,13.80
2022-10-28T19:15:19.924Z,15.00
2022-10-28T19:18:23.244Z,16.10
2022-10-28T19:21:27.167Z,16.07
2022-10-28T19:24:30.669Z,17.10
2022-10-28T19:27:34.227Z,14.48
2022-10-28T19:30:37.857Z,15.05
2022-10-28T19:33:42.215Z,14.07
2022-10-28T19:36:45.205Z,15.23
2022-10-28T19:39:47.932Z,13.97
2022-10-28T19:46:13.541Z,15.20
2022-10-28T19:49:16.497Z,15.80
2022-10-28T19:52:19.431Z,14.37
2022-10-28T19:55:22.708Z,14.87
2022-10-28T19:58:26.169Z,14.87
2022-10-28T20:01:32.439Z,17.98
2022-10-28T20:04:36.058Z,17.20
2022-10-28T20:07:38.754Z,18.00
2022-10-28T20:10:41.615Z,19.63
2022-10-28T20:13:45.894Z,22.23
2022-10-28T20:16:49.463Z,18.77
2022-10-28T20:19:52.035Z,21.83
2022-10-28T20:22:58.713Z,20.90
2022-10-28T20:26:02.801Z,23.13
2022-10-28T20:29:10.192Z,18.12
2022-10-28T20:32:12.890Z,19.67
2022-10-28T20:35:19.207Z,16.17
2022-10-28T20:38:24.707Z,16.87
2022-10-28T20:41:31.578Z,17.63
2022-10-28T20:44:34.465Z,17.15
2022-10-28T20:47:37.525Z,19.48
2022-10-28T20:50:49.563Z,16.87
2022-10-28T20:53:52.783Z,18.73
2022-10-28T20:56:55.292Z,17.43
2022-10-28T20:59:59.427Z,18.50
2022-10-28T21:03:02.431Z,18.42
2022-10-28T21:06:06.939Z,17.17
2022-10-28T21:09:09.692Z,17.87
2022-10-28T21:12:12.524Z,15.63
2022-10-28T21:15:15.196Z,16.00
2022-10-28T21:18:18.095Z,17.15
2022-10-28T21:21:22.502Z,17.75
2022-10-28T21:24:25.416Z,19.10
2022-10-28T21:27:28.994Z,18.30
2022-10-28T21:30:33.045Z,17.42
2022-10-28T21:33:36.835Z,17.15
2022-10-28T21:36:39.795Z,18.00
2022-10-28T21:39:42.380Z,17.27
2022-10-28T21:42:49.111Z,17.17
2022-10-28T21:45:52.286Z,15.95
2022-10-28T21:48:55.364Z,16.60
2022-10-28T21:51:57.900Z,16.45
2022-10-28T21:55:09.682Z,16.17
2022-10-28T21:58:22.912Z,17.00
2022-10-28T22:01:28.340Z,16.12
2022-10-28T22:04:32.359Z,16.77
2022-10-28T22:07:34.974Z,16.30
2022-10-28T22:10:37.822Z,16.53
2022-10-28T22:13:40.406Z,16.60
2022-10-28T22:16:43.417Z,18.33
2022-10-28T22:19:46.033Z,16.50
2022-10-28T22:22:48.935Z,17.33
2022-10-28T22:25:52.827Z,17.43
2022-10-28T22:28:56.582Z,16.20
2022-10-28T22:31:59.101Z,15.07
2022-10-28T22:35:02.127Z,15.73
2022-10-28T22:38:04.741Z,16.30
2022-10-28T22:41:16.234Z,17.10
2022-10-28T22:44:18.843Z,15.17
2022-10-28T22:47:21.745Z,15.75
2022-10-28T22:50:24.301Z,17.05
2022-10-28T22:53:27.484Z,15.18
2022-10-28T22:56:30.324Z,15.73
2022-10-28T22:59:33.161Z,16.20
2022-10-28T23:02:35.942Z,16.45
2022-10-28T23:05:39.994Z,16.52
2022-10-28T23:08:44.967Z,17.27
2022-10-28T23:11:47.799Z,16.50
2022-10-28T23:14:50.395Z,16.30
2022-10-28T23:17:56.227Z,15.73
2022-10-28T23:21:20.837Z,16.48
2022-10-28T23:24:25.669Z,17.02
2022-10-28T23:27:28.247Z,16.70
2022-10-28T23:30:31.180Z,16.47
2022-10-28T23:33:35.086Z,17.65
2022-10-28T23:36:37.968Z,17.08
2022-10-28T23:39:40.569Z,16.70
2022-10-28T23:42:43.797Z,17.90
2022-10-28T23:45:46.417Z,16.90
2022-10-28T23:48:49.264Z,17.65
2022-10-28T23:51:51.841Z,18.37
2022-10-28T23:54:55.275Z,16.23
2022-10-28T23:57:58.264Z,16.30
